M4 — V7YF6 — position and weather

sailwx.info

Track history (hours):
 
Tides and Currents Weather Stations Pressure Air Temp Water Temp Dewpoint Dewpoint Depression Visibility Wind Speed Wind Dir Waves Ship Positions

M4

Last reported at 2017-May-29 22:30 UTC. Time now 2017-May-29 22:51 UTC.
Position N 38°32' W 028°37'.

Length 42 m; draft 2.4 m.

Type: Pleasure craft. MMSI: 538070835.

Date/timePositionNaut miles runAvg speedWind from/ knotsBaromVisibWave heightAir tempDewpointWater temp
2017-May-29 22:30N 38°32' W 028°37'0 0.0
2017-May-29 21:59N 38°32' W 028°37'0 0.0
2017-May-29 21:30N 38°32' W 028°37'0 0.0
2017-May-29 21:00N 38°32' W 028°37'0 0.0
2017-May-29 20:30N 38°32' W 028°37'0 0.0
2017-May-29 19:57N 38°32' W 028°37'0 0.0
2017-May-29 19:30N 38°32' W 028°37'0 0.0
2017-May-29 19:00N 38°32' W 028°37'0 0.0
2017-May-29 18:30N 38°32' W 028°37'0 0.0
2017-May-29 18:00N 38°32' W 028°37'0 0.0
2017-May-29 17:30N 38°32' W 028°37'0 0.0
2017-May-29 17:00N 38°32' W 028°37'0 0.0
2017-May-29 16:27N 38°32' W 028°37'0 0.0
2017-May-29 16:00N 38°32' W 028°37'0 0.0
2017-May-29 15:30N 38°32' W 028°37'0 0.0
2017-May-29 14:57N 38°32' W 028°37'0 0.7
2017-May-29 14:30N 38°32' W 028°37'10 9.5
2017-May-29 13:30N 38°26' W 028°47'510.9
2017-May-29 13:00N 38°24' W 028°53'510.8
2017-May-29 12:30N 38°21' W 028°59'510.7
2017-May-29 12:01N 38°19' W 029°05'510.6
2017-May-29 11:30N 38°16' W 029°11'510.9
2017-May-29 11:00N 38°13' W 029°17'510.8
2017-May-29 10:31N 38°11' W 029°23'510.9
2017-May-29 10:00N 38°08' W 029°29'510.5
2017-May-29 09:30N 38°06' W 029°35'510.9
2017-May-29 09:00N 38°03' W 029°41'510.6
2017-May-29 08:30N 38°00' W 029°47'511.0
2017-May-29 08:00N 37°57' W 029°53'510.8
2017-May-29 07:30N 37°55' W 029°59'610.7
2017-May-29 06:57N 37°52' W 030°05'510.9
2017-May-29 06:30N 37°49' W 030°11'1711.1
2017-May-29 04:57N 37°41' W 030°30'2911.3
2017-May-29 02:25N 37°27' W 031°01'  
Track history (hours):
 
Tides and Currents Weather Stations Pressure Air Temp Water Temp Dewpoint Dewpoint Depression Visibility Wind Speed Wind Dir Waves Ship Positions

M4

Last reported at 2017-May-29 22:30 UTC. Time now 2017-May-29 22:51 UTC.
Position N 38°32' W 028°37'.

Length 42 m; draft 2.4 m.

Type: Pleasure craft. MMSI: 538070835.

Date/timePositionNaut miles runAvg speedWind from/ knotsBaromVisibWave heightAir tempDewpointWater temp
2017-May-29 22:30N 38°32' W 028°37'0 0.0
2017-May-29 21:59N 38°32' W 028°37'0 0.0
2017-May-29 21:30N 38°32' W 028°37'0 0.0
2017-May-29 21:00N 38°32' W 028°37'0 0.0
2017-May-29 20:30N 38°32' W 028°37'0 0.0
2017-May-29 19:57N 38°32' W 028°37'0 0.0
2017-May-29 19:30N 38°32' W 028°37'0 0.0
2017-May-29 19:00N 38°32' W 028°37'0 0.0
2017-May-29 18:30N 38°32' W 028°37'0 0.0
2017-May-29 18:00N 38°32' W 028°37'0 0.0
2017-May-29 17:30N 38°32' W 028°37'0 0.0
2017-May-29 17:00N 38°32' W 028°37'0 0.0
2017-May-29 16:27N 38°32' W 028°37'0 0.0
2017-May-29 16:00N 38°32' W 028°37'0 0.0
2017-May-29 15:30N 38°32' W 028°37'0 0.0
2017-May-29 14:57N 38°32' W 028°37'0 0.7
2017-May-29 14:30N 38°32' W 028°37'10 9.5
2017-May-29 13:30N 38°26' W 028°47'510.9
2017-May-29 13:00N 38°24' W 028°53'510.8
2017-May-29 12:30N 38°21' W 028°59'510.7
2017-May-29 12:01N 38°19' W 029°05'510.6
2017-May-29 11:30N 38°16' W 029°11'510.9
2017-May-29 11:00N 38°13' W 029°17'510.8
2017-May-29 10:31N 38°11' W 029°23'510.9
2017-May-29 10:00N 38°08' W 029°29'510.5
2017-May-29 09:30N 38°06' W 029°35'510.9
2017-May-29 09:00N 38°03' W 029°41'510.6
2017-May-29 08:30N 38°00' W 029°47'511.0
2017-May-29 08:00N 37°57' W 029°53'510.8
2017-May-29 07:30N 37°55' W 029°59'610.7
2017-May-29 06:57N 37°52' W 030°05'510.9
2017-May-29 06:30N 37°49' W 030°11'1711.1
2017-May-29 04:57N 37°41' W 030°30'2911.3
2017-May-29 02:25N 37°27' W 031°01'  

Dump ship's entire track history